Time;durP1;ratioP1;P1;durP2;ratioP2;P2;SDS_P1;SDS_P2;PMS_P1;PMS_P2;Temp;Humidity;BMP_temperature;BMP_pressure;BME280_temperature;BME280_humidity;BME280_pressure;Samples;Min_cycle;Max_cycle;Signal;HPM_P1;HPM_P2
2021/10/14 00:01:08;;;;;;;2.35;0.90;;;19.40;55.00;;;;;;5133255;28;20026;-57
2021/10/14 00:03:33;;;;;;;2.47;0.80;;;19.50;55.00;;;;;;5133388;28;20395;-57
2021/10/14 00:05:59;;;;;;;1.90;0.75;;;19.40;55.00;;;;;;5135938;27;20523;-55
2021/10/14 00:08:24;;;;;;;3.53;0.75;;;19.40;55.00;;;;;;5137087;27;20413;-55
2021/10/14 00:10:50;;;;;;;1.42;0.63;;;19.40;54.90;;;;;;5137039;27;20023;-55
2021/10/14 00:13:16;;;;;;;3.60;1.10;;;19.40;55.00;;;;;;5137008;27;20458;-52
2021/10/14 00:15:42;;;;;;;2.85;0.93;;;19.40;55.00;;;;;;5137279;27;20052;-55
2021/10/14 00:18:07;;;;;;;2.35;0.80;;;19.40;55.00;;;;;;5136866;27;20466;-52
2021/10/14 00:20:33;;;;;;;4.18;0.93;;;19.40;55.00;;;;;;5136806;27;20037;-57
2021/10/14 00:22:59;;;;;;;1.92;0.70;;;19.40;55.00;;;;;;5136832;27;20098;-54
2021/10/14 00:25:25;;;;;;;3.60;1.60;;;19.40;55.00;;;;;;5136760;27;20055;-55
2021/10/14 00:27:51;;;;;;;2.28;0.90;;;19.40;55.00;;;;;;5136757;27;20050;-56
2021/10/14 00:30:17;;;;;;;2.53;0.80;;;19.40;55.00;;;;;;5136654;27;20488;-56
2021/10/14 00:32:43;;;;;;;3.92;0.90;;;19.40;55.00;;;;;;5136966;27;20027;-58
2021/10/14 00:35:09;;;;;;;2.30;1.00;;;19.40;55.00;;;;;;5118464;27;20418;-56
2021/10/14 00:37:34;;;;;;;3.33;0.88;;;19.40;55.00;;;;;;5118080;27;20039;-56
2021/10/14 00:40:00;;;;;;;2.35;0.80;;;19.40;55.00;;;;;;5136374;27;20470;-57
2021/10/14 00:42:26;;;;;;;3.00;0.95;;;19.40;55.00;;;;;;5136543;27;20031;-57
2021/10/14 00:44:55;;;;;;;2.55;0.90;;;19.40;55.00;;;;;;5136725;27;20027;-55
2021/10/14 00:47:23;;;;;;;2.38;0.82;;;19.40;55.00;;;;;;5136607;27;20019;-52
2021/10/14 00:49:49;;;;;;;1.80;0.80;;;19.40;55.00;;;;;;5136359;27;20026;-55
2021/10/14 00:52:15;;;;;;;2.22;0.80;;;19.30;55.00;;;;;;5136299;27;20019;-53
2021/10/14 00:54:41;;;;;;;3.20;1.23;;;19.40;55.00;;;;;;5136221;27;20034;-56
2021/10/14 00:57:07;;;;;;;1.92;0.65;;;19.40;55.00;;;;;;5136225;27;20039;-58
2021/10/14 00:59:36;;;;;;;2.92;0.95;;;19.40;55.00;;;;;;5136182;27;20023;-56
2021/10/14 01:02:01;;;;;;;4.03;1.13;;;19.40;55.00;;;;;;5136192;27;20038;-55
2021/10/14 01:04:27;;;;;;;5.43;1.00;;;19.40;55.00;;;;;;5136074;27;20016;-57
2021/10/14 01:06:52;;;;;;;3.17;1.10;;;19.30;55.00;;;;;;5136419;27;20122;-56
2021/10/14 01:09:19;;;;;;;1.95;0.65;;;19.40;55.00;;;;;;5117803;27;20023;-51
2021/10/14 01:11:44;;;;;;;1.70;0.65;;;19.40;55.00;;;;;;5136006;27;20034;-53
2021/10/14 01:14:10;;;;;;;2.70;0.88;;;19.30;55.00;;;;;;5135900;27;20031;-57
2021/10/14 01:16:40;;;;;;;3.75;0.98;;;19.40;55.00;;;;;;5135037;27;20027;-58
2021/10/14 01:19:06;;;;;;;2.13;0.70;;;19.30;55.00;;;;;;5135804;27;20470;-55
2021/10/14 01:21:32;;;;;;;3.92;1.08;;;19.30;55.00;;;;;;5135776;27;20045;-59
2021/10/14 01:23:59;;;;;;;3.63;1.10;;;19.30;55.00;;;;;;5135876;27;20110;-57
2021/10/14 01:26:25;;;;;;;2.53;0.90;;;19.30;55.00;;;;;;5135684;27;20114;-56
2021/10/14 01:28:50;;;;;;;2.85;0.95;;;19.30;55.00;;;;;;5135711;27;20546;-56
2021/10/14 01:31:16;;;;;;;2.35;1.10;;;19.40;55.00;;;;;;5135563;27;20062;-57
2021/10/14 01:33:41;;;;;;;1.85;0.88;;;19.30;55.00;;;;;;5135621;27;20024;-58
2021/10/14 01:36:07;;;;;;;3.90;0.80;;;19.30;55.00;;;;;;5135328;27;20041;-58
2021/10/14 01:38:32;;;;;;;2.30;0.93;;;19.30;55.00;;;;;;5135355;27;20475;-56
2021/10/14 01:40:58;;;;;;;2.10;0.77;;;19.30;55.00;;;;;;5135200;27;20454;-55
2021/10/14 01:43:24;;;;;;;3.95;0.98;;;19.30;55.00;;;;;;5135610;27;20107;-58
2021/10/14 01:45:49;;;;;;;2.60;1.08;;;19.40;55.00;;;;;;5135282;27;20030;-58
2021/10/14 01:48:15;;;;;;;3.15;1.08;;;19.30;55.00;;;;;;5135163;27;20098;-60
2021/10/14 01:50:42;;;;;;;3.30;0.98;;;19.30;55.00;;;;;;5135171;27;20023;-56
2021/10/14 01:53:08;;;;;;;3.67;0.95;;;19.30;55.00;;;;;;5135018;27;20423;-56
2021/10/14 01:55:34;;;;;;;3.83;1.05;;;19.30;55.00;;;;;;5135253;27;20059;-56
2021/10/14 01:58:00;;;;;;;3.05;0.90;;;19.30;55.00;;;;;;5134905;27;20080;-57
2021/10/14 02:00:25;;;;;;;2.85;0.88;;;19.30;55.00;;;;;;5134977;27;20024;-55
2021/10/14 02:02:51;;;;;;;1.70;0.80;;;19.30;55.00;;;;;;5116425;27;20078;-56
2021/10/14 02:05:16;;;;;;;2.95;0.90;;;19.30;55.00;;;;;;5134805;27;20076;-57
2021/10/14 02:07:42;;;;;;;2.50;1.10;;;19.30;55.00;;;;;;5134914;27;20102;-56
2021/10/14 02:10:08;;;;;;;2.58;0.95;;;19.30;55.00;;;;;;5116315;27;20019;-53
2021/10/14 02:12:34;;;;;;;3.17;0.82;;;19.30;55.10;;;;;;5134660;27;20083;-54
2021/10/14 02:15:00;;;;;;;3.13;1.00;;;19.30;55.00;;;;;;5134697;27;20019;-55
2021/10/14 02:17:25;;;;;;;3.00;0.80;;;19.30;55.00;;;;;;5134561;27;20067;-58
2021/10/14 02:19:52;;;;;;;4.82;1.23;;;19.20;55.00;;;;;;5116319;27;20019;-57
2021/10/14 02:22:17;;;;;;;3.17;1.20;;;19.30;55.00;;;;;;5134494;27;20156;-58
2021/10/14 02:24:43;;;;;;;3.15;1.08;;;19.20;55.10;;;;;;5134541;27;20064;-56
2021/10/14 02:27:09;;;;;;;1.25;0.70;;;19.30;55.10;;;;;;5134586;27;20506;-56
2021/10/14 02:29:34;;;;;;;3.13;0.90;;;19.20;55.10;;;;;;5115992;27;20102;-57
2021/10/14 02:32:00;;;;;;;3.17;0.90;;;19.20;55.00;;;;;;5116043;27;20069;-56
2021/10/14 02:34:25;;;;;;;2.20;0.85;;;19.20;55.10;;;;;;5134434;27;20019;-54
2021/10/14 02:36:51;;;;;;;3.67;1.05;;;19.30;55.10;;;;;;5134156;27;20110;-57
2021/10/14 02:39:16;;;;;;;1.73;0.70;;;19.20;55.10;;;;;;5115711;27;20152;-56
2021/10/14 02:41:42;;;;;;;3.30;1.08;;;19.20;55.10;;;;;;5134327;27;20453;-56
2021/10/14 02:44:08;;;;;;;1.77;0.75;;;19.20;55.10;;;;;;5134234;27;20034;-56
2021/10/14 02:46:33;;;;;;;1.45;0.70;;;19.20;55.10;;;;;;5115961;27;20115;-56
2021/10/14 02:48:59;;;;;;;3.20;0.95;;;19.20;55.10;;;;;;5134162;27;20416;-57
2021/10/14 02:51:24;;;;;;;3.83;0.82;;;19.20;55.10;;;;;;5134058;27;20493;-55
2021/10/14 02:53:50;;;;;;;2.72;0.90;;;19.20;55.10;;;;;;5134049;27;20114;-56
2021/10/14 02:56:15;;;;;;;2.03;0.80;;;19.20;55.10;;;;;;5115670;27;20035;-55
2021/10/14 02:58:41;;;;;;;3.15;0.95;;;19.20;55.10;;;;;;5134179;27;20355;-55
2021/10/14 03:01:07;;;;;;;2.85;0.80;;;19.20;55.10;;;;;;5134092;27;20022;-56
2021/10/14 03:03:33;;;;;;;2.88;1.05;;;19.20;55.10;;;;;;5133950;27;20390;-56
2021/10/14 03:05:59;;;;;;;2.15;0.70;;;19.20;55.10;;;;;;5133817;27;20482;-56
2021/10/14 03:08:25;;;;;;;3.00;1.00;;;19.20;55.10;;;;;;5133844;27;20132;-59
2021/10/14 03:10:50;;;;;;;3.85;1.10;;;19.20;55.10;;;;;;5133759;28;20027;-58
2021/10/14 03:13:16;;;;;;;2.33;0.98;;;19.20;55.10;;;;;;5133913;28;20485;-55
2021/10/14 03:15:42;;;;;;;4.45;1.27;;;19.20;55.10;;;;;;5133777;28;20024;-54
2021/10/14 03:18:07;;;;;;;3.50;1.02;;;19.20;55.10;;;;;;5133651;28;20042;-52
2021/10/14 03:20:33;;;;;;;2.72;0.80;;;19.20;55.10;;;;;;5133611;28;20023;-55
2021/10/14 03:22:59;;;;;;;2.72;0.95;;;19.20;55.10;;;;;;5133723;28;20035;-56
2021/10/14 03:25:25;;;;;;;3.10;1.08;;;19.20;55.10;;;;;;5133904;28;20052;-56
2021/10/14 03:27:50;;;;;;;3.70;1.20;;;19.20;55.10;;;;;;5133668;28;20031;-55
2021/10/14 03:30:16;;;;;;;3.55;1.00;;;19.20;55.10;;;;;;5133653;28;20019;-55
2021/10/14 03:32:41;;;;;;;2.33;0.73;;;19.20;55.10;;;;;;5133866;28;20486;-58
2021/10/14 03:35:07;;;;;;;2.00;0.90;;;19.20;55.10;;;;;;5133492;28;20030;-52
2021/10/14 03:37:33;;;;;;;3.25;1.80;;;19.20;55.10;;;;;;5133781;28;20035;-55
2021/10/14 03:39:58;;;;;;;3.22;0.80;;;19.20;55.10;;;;;;5134325;27;20142;-55
2021/10/14 03:42:24;;;;;;;2.35;0.98;;;19.20;55.10;;;;;;5137639;27;20493;-56
2021/10/14 03:44:49;;;;;;;3.97;1.10;;;19.20;55.10;;;;;;5137637;27;20475;-55
2021/10/14 03:47:15;;;;;;;3.10;0.90;;;19.20;55.10;;;;;;5137524;27;20071;-55
2021/10/14 03:49:41;;;;;;;3.15;0.90;;;19.20;55.10;;;;;;5137414;27;20066;-53
2021/10/14 03:52:06;;;;;;;2.05;0.75;;;19.20;55.10;;;;;;5137429;27;20049;-56
2021/10/14 03:54:32;;;;;;;2.28;0.80;;;19.20;55.10;;;;;;5137378;27;20031;-54
2021/10/14 03:56:57;;;;;;;1.92;0.80;;;19.20;55.20;;;;;;5118839;27;20031;-55
2021/10/14 03:59:23;;;;;;;3.50;0.90;;;19.20;55.10;;;;;;5137277;27;20023;-54
2021/10/14 04:01:48;;;;;;;2.95;1.00;;;19.20;55.10;;;;;;5137221;27;20029;-57
2021/10/14 04:04:14;;;;;;;2.88;0.88;;;19.20;55.10;;;;;;5137172;27;20031;-54
2021/10/14 04:06:39;;;;;;;2.58;0.98;;;19.20;55.10;;;;;;5137194;27;20054;-55
2021/10/14 04:09:05;;;;;;;4.03;1.27;;;19.20;55.10;;;;;;5137115;27;20504;-53
2021/10/14 04:11:30;;;;;;;3.20;1.42;;;19.20;55.20;;;;;;5137116;27;20080;-51
2021/10/14 04:13:56;;;;;;;3.35;1.05;;;19.20;55.10;;;;;;5118580;27;20470;-55
2021/10/14 04:16:21;;;;;;;3.35;1.25;;;19.20;55.10;;;;;;5136907;27;20032;-57
2021/10/14 04:18:47;;;;;;;1.67;0.70;;;19.20;55.10;;;;;;5136908;27;20019;-58
2021/10/14 04:21:13;;;;;;;2.85;1.10;;;19.20;55.10;;;;;;5136904;27;20538;-58
2021/10/14 04:23:43;;;;;;;2.00;0.82;;;19.20;55.10;;;;;;5136812;27;20027;-55
2021/10/14 04:26:10;;;;;;;6.43;1.08;;;19.20;55.10;;;;;;5136842;27;20011;-57
2021/10/14 04:28:36;;;;;;;3.05;0.90;;;19.20;55.10;;;;;;5136757;27;20372;-58
2021/10/14 04:31:01;;;;;;;3.47;1.00;;;19.30;55.10;;;;;;5136742;27;20023;-55
2021/10/14 04:33:29;;;;;;;3.10;1.00;;;19.30;55.10;;;;;;5136620;27;20019;-56
2021/10/14 04:35:55;;;;;;;3.25;1.20;;;19.30;55.10;;;;;;5136612;27;20370;-55
2021/10/14 04:38:21;;;;;;;2.22;0.90;;;19.20;55.10;;;;;;5136561;27;20039;-58
2021/10/14 04:40:46;;;;;;;2.80;1.02;;;19.30;55.00;;;;;;5136406;27;20046;-58
2021/10/14 04:43:12;;;;;;;2.38;1.00;;;19.20;55.10;;;;;;5136400;27;20023;-58
2021/10/14 04:45:37;;;;;;;3.88;1.50;;;19.30;55.10;;;;;;5136378;27;20052;-57
2021/10/14 04:48:03;;;;;;;4.82;1.10;;;19.30;55.00;;;;;;5136266;27;20478;-55
2021/10/14 04:50:29;;;;;;;3.00;0.98;;;19.30;55.00;;;;;;5136524;27;20494;-56
2021/10/14 04:52:54;;;;;;;4.15;1.08;;;19.30;55.00;;;;;;5134989;27;20382;-54
2021/10/14 04:55:20;;;;;;;3.17;1.10;;;19.30;55.00;;;;;;5136121;27;20023;-55
2021/10/14 04:57:46;;;;;;;3.35;1.35;;;19.30;55.00;;;;;;5136076;27;20045;-56
2021/10/14 05:00:12;;;;;;;2.85;1.08;;;19.30;55.10;;;;;;5136148;27;20019;-58
2021/10/14 05:02:37;;;;;;;3.55;1.40;;;19.30;55.10;;;;;;5100743;27;20080;-57
2021/10/14 05:05:03;;;;;;;4.00;0.98;;;19.30;55.10;;;;;;5136034;27;20023;-57
2021/10/14 05:07:29;;;;;;;4.95;1.27;;;19.30;55.10;;;;;;5117562;27;20027;-57
2021/10/14 05:09:55;;;;;;;3.78;1.00;;;19.30;55.10;;;;;;5135956;27;20024;-52
2021/10/14 05:12:20;;;;;;;2.97;1.08;;;19.30;55.10;;;;;;5135918;27;20042;-53
2021/10/14 05:14:46;;;;;;;3.85;1.30;;;19.30;55.10;;;;;;5117361;27;20027;-57
2021/10/14 05:17:12;;;;;;;4.80;1.77;;;19.30;55.10;;;;;;5135761;27;20035;-58
2021/10/14 05:19:38;;;;;;;3.60;1.08;;;19.30;55.10;;;;;;5135776;27;20410;-56
2021/10/14 05:22:03;;;;;;;3.25;1.20;;;19.30;55.10;;;;;;5135869;27;20049;-57
2021/10/14 05:24:29;;;;;;;5.93;1.60;;;19.30;55.10;;;;;;5135742;27;20023;-57
2021/10/14 05:26:54;;;;;;;4.38;1.25;;;19.30;55.10;;;;;;5135596;27;20099;-55
2021/10/14 05:29:20;;;;;;;4.00;1.35;;;19.30;55.10;;;;;;5117116;27;20126;-53
2021/10/14 05:31:45;;;;;;;2.95;1.13;;;19.30;55.10;;;;;;5135475;27;20428;-55
2021/10/14 05:34:11;;;;;;;5.43;1.73;;;19.30;55.10;;;;;;5135815;27;20420;-55
2021/10/14 05:36:36;;;;;;;2.90;1.13;;;19.30;55.10;;;;;;5135433;27;20389;-58
2021/10/14 05:39:02;;;;;;;3.03;1.33;;;19.30;55.10;;;;;;5135194;27;20516;-59
2021/10/14 05:41:28;;;;;;;4.10;1.50;;;19.30;55.20;;;;;;5135402;27;20106;-57
2021/10/14 05:43:54;;;;;;;3.38;1.35;;;19.30;55.10;;;;;;5135278;27;20102;-60
2021/10/14 05:46:19;;;;;;;3.42;1.30;;;19.30;55.10;;;;;;5135207;27;20043;-58
2021/10/14 05:48:45;;;;;;;5.10;1.80;;;19.30;55.20;;;;;;5135192;27;20459;-58
2021/10/14 05:51:10;;;;;;;4.00;1.35;;;19.30;55.20;;;;;;5135369;27;20020;-58
2021/10/14 05:53:36;;;;;;;3.85;1.38;;;19.30;55.20;;;;;;5135097;27;20031;-58
2021/10/14 05:56:02;;;;;;;5.05;1.65;;;19.30;55.20;;;;;;5135251;27;20156;-58
2021/10/14 05:58:28;;;;;;;3.67;1.27;;;19.30;55.20;;;;;;5134837;27;20164;-56
2021/10/14 06:00:53;;;;;;;4.20;1.55;;;19.30;55.20;;;;;;5134852;27;20373;-56
2021/10/14 06:03:19;;;;;;;3.30;1.35;;;19.30;55.20;;;;;;5134527;27;20106;-55
2021/10/14 06:05:45;;;;;;;3.35;1.60;;;19.30;55.20;;;;;;5134734;27;20023;-57
2021/10/14 06:08:10;;;;;;;4.90;1.67;;;19.30;55.20;;;;;;5134803;27;20031;-56
2021/10/14 06:10:36;;;;;;;2.95;1.30;;;19.30;55.20;;;;;;5134688;27;20025;-57
2021/10/14 06:13:01;;;;;;;3.92;1.55;;;19.30;55.20;;;;;;5134586;27;20031;-55
2021/10/14 06:15:27;;;;;;;4.80;1.60;;;19.30;55.20;;;;;;5134404;27;20019;-57
2021/10/14 06:17:54;;;;;;;3.58;1.25;;;19.30;55.20;;;;;;5134541;27;20031;-58
2021/10/14 06:20:20;;;;;;;3.72;1.70;;;19.30;55.20;;;;;;5134537;27;20045;-57
2021/10/14 06:22:46;;;;;;;3.83;1.25;;;19.40;55.20;;;;;;5134526;27;20539;-57
2021/10/14 06:25:11;;;;;;;4.05;1.40;;;19.30;55.20;;;;;;5132912;27;20126;-56
2021/10/14 06:27:37;;;;;;;3.35;1.38;;;19.30;55.20;;;;;;5122420;27;20382;-57
2021/10/14 06:30:03;;;;;;;6.68;2.17;;;19.40;55.20;;;;;;5124683;27;20554;-58
2021/10/14 06:32:29;;;;;;;4.30;1.63;;;19.40;55.20;;;;;;5126695;27;20383;-57
2021/10/14 06:34:54;;;;;;;5.40;1.50;;;19.40;55.10;;;;;;5115654;27;20031;-56
2021/10/14 06:37:20;;;;;;;4.25;1.52;;;19.40;55.10;;;;;;5113366;28;20420;-57
2021/10/14 06:39:46;;;;;;;3.55;1.10;;;19.40;55.20;;;;;;5113337;27;20043;-59
2021/10/14 06:42:12;;;;;;;3.92;1.65;;;19.40;55.20;;;;;;5095313;28;20065;-58
2021/10/14 06:44:37;;;;;;;3.65;1.48;;;19.40;55.20;;;;;;5110352;27;20062;-54
2021/10/14 06:47:03;;;;;;;3.58;1.60;;;19.40;55.10;;;;;;5116298;27;20042;-56
2021/10/14 06:49:28;;;;;;;5.43;1.77;;;19.40;55.20;;;;;;5113282;28;20038;-57
2021/10/14 06:51:55;;;;;;;4.45;1.73;;;19.40;55.20;;;;;;5113320;28;20544;-58
2021/10/14 06:54:21;;;;;;;3.00;1.40;;;19.40;55.20;;;;;;5124955;27;20026;-57
2021/10/14 06:56:47;;;;;;;4.57;1.63;;;19.40;55.20;;;;;;5126764;27;20027;-56
2021/10/14 06:59:12;;;;;;;4.07;1.48;;;19.40;55.20;;;;;;5132529;27;20600;-57
2021/10/14 07:01:38;;;;;;;3.35;1.10;;;19.40;55.20;;;;;;5129118;27;20035;-52
2021/10/14 07:04:04;;;;;;;3.58;1.40;;;19.40;55.20;;;;;;5118584;27;20024;-55
2021/10/14 07:06:30;;;;;;;5.72;1.70;;;19.40;55.20;;;;;;5125676;27;20026;-54
2021/10/14 07:08:55;;;;;;;4.05;1.70;;;19.40;55.20;;;;;;5115959;28;20440;-53
2021/10/14 07:11:22;;;;;;;4.57;1.40;;;19.40;55.20;;;;;;5116860;28;20019;-53
2021/10/14 07:13:47;;;;;;;4.50;1.48;;;19.40;55.20;;;;;;5114032;27;20490;-51
2021/10/14 07:16:13;;;;;;;4.90;1.48;;;19.40;55.20;;;;;;5124189;28;20032;-52
2021/10/14 07:18:39;;;;;;;4.60;1.80;;;19.50;55.20;;;;;;5116225;28;20043;-50
2021/10/14 07:21:07;;;;;;;6.32;1.42;;;19.50;55.20;;;;;;5115053;28;20020;-52
2021/10/14 07:23:33;;;;;;;4.50;1.42;;;19.50;55.20;;;;;;5112198;28;20023;-54
2021/10/14 07:25:58;;;;;;;4.80;1.55;;;19.50;55.20;;;;;;5120314;28;20030;-53
2021/10/14 07:28:24;;;;;;;4.53;1.55;;;19.50;55.20;;;;;;5102110;28;20475;-51
2021/10/14 07:30:52;;;;;;;5.15;1.67;;;19.50;55.20;;;;;;5111614;28;20119;-50
2021/10/14 07:33:17;;;;;;;4.45;1.63;;;19.50;55.20;;;;;;5115895;28;20020;-56
2021/10/14 07:35:43;;;;;;;5.00;1.75;;;19.50;55.20;;;;;;5118234;28;20123;-56
2021/10/14 07:38:12;;;;;;;3.97;1.67;;;19.50;55.20;;;;;;5120250;28;20032;-55
2021/10/14 07:40:42;;;;;;;4.88;1.55;;;19.50;55.30;;;;;;5094648;28;20480;-54
2021/10/14 07:43:10;;;;;;;5.88;2.17;;;19.50;55.20;;;;;;5106839;28;20126;-54
2021/10/14 07:45:36;;;;;;;3.78;1.60;;;19.50;55.30;;;;;;5107770;28;20479;-59
2021/10/14 07:48:02;;;;;;;3.67;1.33;;;19.50;55.30;;;;;;5108406;28;20051;-53
2021/10/14 07:50:28;;;;;;;3.97;1.48;;;19.50;55.30;;;;;;5098193;28;20024;-52
2021/10/14 07:52:53;;;;;;;3.20;1.50;;;19.50;55.30;;;;;;5108746;28;20023;-55
2021/10/14 07:55:19;;;;;;;5.85;1.70;;;19.50;55.30;;;;;;5101351;28;20375;-54
2021/10/14 07:57:45;;;;;;;2.97;1.35;;;19.50;55.30;;;;;;5109890;28;20072;-55
2021/10/14 08:00:12;;;;;;;3.90;1.60;;;19.50;55.30;;;;;;5097577;28;20102;-54
2021/10/14 08:02:38;;;;;;;4.45;1.67;;;19.50;55.40;;;;;;5100580;28;20039;-53
2021/10/14 08:05:04;;;;;;;5.10;1.70;;;19.50;55.40;;;;;;5097768;28;20608;-51
2021/10/14 08:07:30;;;;;;;2.67;1.20;;;19.50;55.30;;;;;;5097638;28;20482;-54
2021/10/14 08:09:56;;;;;;;5.30;1.73;;;19.50;55.40;;;;;;5100481;28;20147;-56
2021/10/14 08:12:22;;;;;;;4.30;1.80;;;19.50;55.40;;;;;;5093759;28;20024;-55
2021/10/14 08:14:48;;;;;;;5.07;1.90;;;19.50;55.40;;;;;;5106868;28;20106;-52
2021/10/14 08:17:13;;;;;;;3.92;1.30;;;19.50;55.40;;;;;;5094770;28;20178;-56
2021/10/14 08:19:39;;;;;;;4.57;1.67;;;19.50;55.40;;;;;;5099233;28;20383;-53
2021/10/14 08:22:05;;;;;;;6.07;2.08;;;19.50;55.40;;;;;;5092979;28;20028;-54
2021/10/14 08:24:30;;;;;;;5.45;1.45;;;19.50;55.50;;;;;;5091699;28;20034;-56
2021/10/14 08:26:56;;;;;;;4.00;1.33;;;19.60;55.40;;;;;;5102272;28;20443;-53
2021/10/14 08:29:21;;;;;;;5.05;1.80;;;19.50;55.40;;;;;;5096682;28;20028;-53
2021/10/14 08:31:47;;;;;;;5.50;2.03;;;19.50;55.40;;;;;;5102860;28;20085;-54
2021/10/14 08:34:12;;;;;;;3.38;1.20;;;19.50;55.50;;;;;;5107673;28;20019;-54
2021/10/14 08:36:40;;;;;;;4.88;1.95;;;19.60;55.50;;;;;;5107873;28;20028;-55
2021/10/14 08:39:06;;;;;;;5.07;1.63;;;19.60;55.50;;;;;;5099215;28;20119;-55
2021/10/14 08:41:31;;;;;;;2.83;1.50;;;19.60;55.50;;;;;;5126173;27;20062;-54
2021/10/14 08:43:59;;;;;;;4.13;1.55;;;19.60;55.50;;;;;;5135079;27;20039;-52
2021/10/14 08:46:25;;;;;;;4.22;1.70;;;19.60;55.50;;;;;;5134044;27;20094;-55
2021/10/14 08:48:51;;;;;;;4.30;1.80;;;19.60;55.50;;;;;;5133875;27;20143;-53
2021/10/14 08:51:16;;;;;;;5.20;1.85;;;19.60;55.50;;;;;;5127216;27;20530;-55
2021/10/14 08:53:45;;;;;;;3.35;1.63;;;19.60;55.50;;;;;;5134803;27;20113;-54
2021/10/14 08:56:11;;;;;;;3.80;1.65;;;19.60;55.50;;;;;;5133575;27;20035;-57
2021/10/14 08:58:37;;;;;;;5.20;1.80;;;19.60;55.60;;;;;;5135533;27;20069;-51
2021/10/14 09:01:04;;;;;;;3.33;1.38;;;19.60;55.60;;;;;;5132333;27;20058;-57
2021/10/14 09:03:30;;;;;;;3.63;1.63;;;19.60;55.60;;;;;;5122500;27;20034;-56
2021/10/14 09:05:56;;;;;;;4.28;1.60;;;19.70;55.60;;;;;;5126798;27;20080;-51
2021/10/14 09:08:36;;;;;;;4.22;1.70;;;19.60;55.50;;;;;;5120827;27;20059;-55
2021/10/14 09:11:07;;;;;;;4.85;1.80;;;19.70;55.50;;;;;;5120722;27;20020;-54
2021/10/14 09:13:32;;;;;;;4.28;1.80;;;19.70;55.50;;;;;;5122173;27;20123;-55
2021/10/14 09:16:21;;;;;;;5.40;1.63;;;19.70;55.50;;;;;;5116198;27;20110;-53
2021/10/14 09:18:50;;;;;;;4.30;1.73;;;19.70;55.60;;;;;;5125726;27;20390;-54
2021/10/14 09:21:23;;;;;;;5.68;1.90;;;19.70;55.60;;;;;;5123160;27;20031;-55
2021/10/14 09:23:49;;;;;;;4.65;1.70;;;19.70;55.60;;;;;;5114511;27;20020;-54
2021/10/14 09:26:34;;;;;;;3.85;1.60;;;19.70;55.60;;;;;;5114112;28;20016;-52
2021/10/14 09:29:12;;;;;;;;;;;19.70;55.60;;;;;;5125936;27;20542;-55
2021/10/14 09:31:50;;;;;;;7.50;1.77;;;19.70;55.60;;;;;;5103747;27;20479;-58
2021/10/14 09:34:37;;;;;;;6.82;2.00;;;19.70;55.60;;;;;;5127762;27;20531;-53
2021/10/14 09:37:15;;;;;;;3.25;1.50;;;19.70;55.70;;;;;;5120581;27;20394;-58
2021/10/14 09:40:16;;;;;;;4.80;1.55;;;19.70;55.70;;;;;;5118203;27;20122;-58
2021/10/14 09:42:54;;;;;;;6.95;2.05;;;19.70;55.70;;;;;;5010401;28;20076;-54
2021/10/14 09:45:20;;;;;;;4.47;1.60;;;19.70;55.70;;;;;;5111174;27;20031;-55
2021/10/14 09:48:05;;;;;;;4.60;1.58;;;19.70;55.70;;;;;;5114727;27;20474;-51
2021/10/14 09:50:33;;;;;;;;;;;19.70;55.70;;;;;;5102256;27;20019;-57
2021/10/14 09:53:00;;;;;;;3.67;1.55;;;19.70;55.70;;;;;;5124585;27;19999;-57
2021/10/14 09:55:26;;;;;;;5.57;1.77;;;19.70;55.70;;;;;;5119918;27;20020;-55
2021/10/14 09:57:52;;;;;;;4.93;1.70;;;19.70;55.80;;;;;;5123327;27;20053;-58
2021/10/14 10:00:19;;;;;;;4.88;1.80;;;19.70;55.80;;;;;;5115530;27;20046;-58
2021/10/14 10:02:46;;;;;;;6.60;2.05;;;19.70;55.80;;;;;;5101110;27;20058;-57
2021/10/14 10:05:12;;;;;;;6.28;2.05;;;19.70;55.80;;;;;;5106441;28;20020;-55
2021/10/14 10:07:39;;;;;;;5.10;2.00;;;19.70;55.80;;;;;;5117151;27;20030;-56
2021/10/14 10:10:06;;;;;;;4.97;1.90;;;19.70;55.80;;;;;;5114348;27;20540;-54
2021/10/14 10:12:34;;;;;;;3.67;1.63;;;19.80;55.70;;;;;;5130518;27;20192;-55
2021/10/14 10:15:00;;;;;;;5.13;1.88;;;19.70;55.70;;;;;;5119072;27;20073;-50
2021/10/14 10:17:37;;;;;;;5.20;1.90;;;19.80;55.70;;;;;;5114032;27;20034;-55
2021/10/14 10:20:04;;;;;;;3.97;1.50;;;19.80;55.70;;;;;;5118404;27;20114;-54
2021/10/14 10:22:33;;;;;;;4.63;1.70;;;19.80;55.70;;;;;;5111115;28;20016;-50
2021/10/14 10:25:18;;;;;;;6.55;1.95;;;19.80;55.70;;;;;;5113308;28;20023;-56
2021/10/14 10:27:44;;;;;;;4.15;1.80;;;19.80;55.70;;;;;;5113558;28;20487;-54
2021/10/14 10:30:25;;;;;;;4.65;1.80;;;19.80;55.70;;;;;;5113851;28;20571;-51
2021/10/14 10:32:50;;;;;;;5.78;1.58;;;19.80;55.70;;;;;;5122420;27;20077;-58
2021/10/14 10:35:36;;;;;;;5.57;1.98;;;19.80;55.70;;;;;;5133461;27;20444;-53
2021/10/14 10:38:14;;;;;;;5.72;1.75;;;19.80;55.70;;;;;;5132611;27;20087;-56
2021/10/14 10:40:42;;;;;;;5.00;1.65;;;19.80;55.70;;;;;;5130750;27;20100;-50
2021/10/14 10:43:12;;;;;;;4.50;2.00;;;19.80;55.70;;;;;;5128079;27;20023;-55
2021/10/14 10:45:40;;;;;;;5.38;1.85;;;19.80;55.90;;;;;;5119869;27;20024;-53
2021/10/14 10:48:06;;;;;;;4.38;1.80;;;19.80;55.80;;;;;;5121948;27;20023;-51
2021/10/14 10:50:32;;;;;;;4.55;1.98;;;19.80;55.70;;;;;;5112105;28;20411;-55
2021/10/14 10:53:04;;;;;;;7.40;2.08;;;19.80;55.70;;;;;;5114201;28;20031;-57
2021/10/14 10:55:56;;;;;;;6.25;1.95;;;19.80;55.80;;;;;;5114458;27;20378;-54
2021/10/14 10:58:27;;;;;;;4.90;1.95;;;19.80;55.70;;;;;;5113217;28;20040;-55
2021/10/14 11:00:53;;;;;;;5.38;1.90;;;19.90;55.70;;;;;;5131722;27;20023;-54
2021/10/14 11:03:21;;;;;;;4.57;1.80;;;19.90;55.70;;;;;;5112773;28;20306;-54
2021/10/14 11:05:54;;;;;;;3.97;1.75;;;19.90;55.80;;;;;;5122004;27;20087;-53
2021/10/14 11:08:31;;;;;;;6.47;2.13;;;19.90;55.80;;;;;;5129210;27;20030;-51
2021/10/14 11:11:02;;;;;;;5.00;1.90;;;19.90;55.70;;;;;;5115104;28;20027;-55
2021/10/14 11:13:30;;;;;;;4.25;1.67;;;19.90;55.80;;;;;;5115638;28;20505;-54
2021/10/14 11:15:57;;;;;;;7.60;2.55;;;19.90;55.70;;;;;;5122147;28;20035;-56
2021/10/14 11:18:25;;;;;;;5.03;2.22;;;19.90;55.70;;;;;;5105077;28;20372;-53
2021/10/14 11:20:59;;;;;;;5.75;2.28;;;19.90;55.70;;;;;;5127984;28;20474;-54
2021/10/14 11:23:38;;;;;;;;;;;19.90;55.70;;;;;;5119947;28;20118;-56
2021/10/14 11:26:07;;;;;;;4.80;1.80;;;20.00;55.70;;;;;;5132775;28;20490;-55
2021/10/14 11:28:48;;;;;;;4.05;2.10;;;19.90;55.70;;;;;;5133415;28;20030;-56
2021/10/14 11:31:24;;;;;;;4.35;2.00;;;19.90;55.80;;;;;;5131640;28;20034;-54
2021/10/14 11:33:50;;;;;;;3.78;1.42;;;19.90;55.70;;;;;;5133242;28;20026;-54
2021/10/14 11:36:20;;;;;;;5.40;1.88;;;19.90;55.70;;;;;;5113984;28;20028;-55
2021/10/14 11:38:56;;;;;;;4.20;1.40;;;19.90;55.70;;;;;;5121327;28;20091;-56
2021/10/14 11:41:22;;;;;;;5.80;1.73;;;20.00;55.70;;;;;;5113594;28;20023;-57
2021/10/14 11:43:54;;;;;;;4.07;1.58;;;20.00;55.70;;;;;;5095813;28;20112;-55
2021/10/14 11:46:29;;;;;;;4.43;1.90;;;20.00;55.70;;;;;;5132145;28;20030;-50
2021/10/14 11:48:59;;;;;;;5.05;2.10;;;20.00;55.60;;;;;;5130159;28;20039;-53
2021/10/14 11:51:26;;;;;;;4.47;1.67;;;20.00;55.70;;;;;;5112995;28;20077;-56
2021/10/14 11:53:58;;;;;;;5.72;1.77;;;20.00;55.70;;;;;;5115700;28;20512;-58
2021/10/14 11:56:24;;;;;;;4.45;2.15;;;20.00;55.70;;;;;;5128089;28;20489;-56
2021/10/14 11:58:49;;;;;;;6.38;2.10;;;20.00;55.70;;;;;;5132610;28;20036;-54
2021/10/14 12:01:18;;;;;;;5.13;2.22;;;20.00;55.60;;;;;;5121407;27;20354;-57
2021/10/14 12:03:44;;;;;;;6.72;1.67;;;20.00;55.70;;;;;;5128670;27;20107;-54
2021/10/14 12:06:10;;;;;;;5.30;1.90;;;20.00;55.70;;;;;;5116471;28;20375;-54
2021/10/14 12:08:37;;;;;;;5.60;1.98;;;20.00;55.70;;;;;;5102517;28;20069;-55
2021/10/14 12:11:16;;;;;;;5.05;1.75;;;20.00;55.70;;;;;;5116476;27;20036;-55
2021/10/14 12:13:41;;;;;;;4.72;1.58;;;20.00;55.70;;;;;;5097965;28;20092;-54
2021/10/14 12:16:12;;;;;;;6.15;1.70;;;20.00;55.70;;;;;;5120739;27;20070;-57
2021/10/14 12:18:38;;;;;;;5.32;1.92;;;20.00;55.60;;;;;;5116819;27;20042;-58
2021/10/14 12:21:27;;;;;;;7.45;2.00;;;20.10;55.60;;;;;;5131377;27;20394;-57
2021/10/14 12:24:13;;;;;;;3.92;1.60;;;20.10;55.60;;;;;;5130517;27;20102;-56
2021/10/14 12:26:47;;;;;;;5.15;2.00;;;20.00;55.60;;;;;;5116290;28;20432;-53
2021/10/14 12:29:20;;;;;;;3.63;1.60;;;20.10;55.60;;;;;;5117049;27;20076;-52
2021/10/14 12:31:46;;;;;;;4.35;1.50;;;20.10;55.60;;;;;;5112969;27;20024;-57
2021/10/14 12:34:12;;;;;;;4.80;1.80;;;20.10;55.60;;;;;;5115259;28;20356;-53
2021/10/14 12:36:42;;;;;;;5.88;1.52;;;20.10;55.60;;;;;;5114467;28;20027;-53
2021/10/14 12:39:21;;;;;;;5.93;1.85;;;20.10;55.60;;;;;;5125496;27;20047;-58
2021/10/14 12:41:52;;;;;;;3.75;1.50;;;20.10;55.50;;;;;;5123793;27;20038;-54
2021/10/14 12:44:18;;;;;;;4.57;1.65;;;20.10;55.50;;;;;;5116233;27;20102;-52
2021/10/14 12:47:02;;;;;;;4.43;1.60;;;20.10;55.60;;;;;;5114803;27;20036;-56
2021/10/14 12:49:35;;;;;;;4.32;1.65;;;20.10;55.60;;;;;;5097894;27;20518;-53